Time;durP1;ratioP1;P1;durP2;ratioP2;P2;SDS_P1;SDS_P2;PMS_P1;PMS_P2;Temp;Humidity;BMP_temperature;BMP_pressure;BME280_temperature;BME280_humidity;BME280_pressure;Samples;Min_cycle;Max_cycle;Signal;HPM_P1;HPM_P2
2021/12/15 05:00:40;;;;;;;47.00;20.10;;;9.60;99.90;;;;;;5888495;23;20954;-69
2021/12/15 05:03:07;;;;;;;41.92;17.70;;;9.70;99.90;;;;;;4997387;28;20631;-68
2021/12/15 05:05:35;;;;;;;52.65;19.15;;;9.70;99.90;;;;;;4998610;28;20605;-69
2021/12/15 05:08:03;;;;;;;40.58;19.10;;;9.70;99.90;;;;;;4991728;28;20215;-69
2021/12/15 05:10:30;;;;;;;44.92;17.67;;;9.70;99.90;;;;;;4981796;28;20205;-68
2021/12/15 05:12:58;;;;;;;50.25;18.33;;;9.70;99.90;;;;;;4965709;28;20584;-69
2021/12/15 05:15:25;;;;;;;48.00;19.00;;;9.70;99.90;;;;;;4973270;28;20200;-69
2021/12/15 05:17:53;;;;;;;47.42;19.75;;;9.70;99.90;;;;;;4973554;28;20259;-68
2021/12/15 05:20:22;;;;;;;44.90;17.98;;;9.70;99.90;;;;;;4972693;28;20200;-69
2021/12/15 05:22:49;;;;;;;45.17;19.15;;;9.70;99.90;;;;;;4973117;28;20205;-69
2021/12/15 05:25:16;;;;;;;45.50;18.23;;;9.70;99.90;;;;;;5021312;23;20224;-73
2021/12/15 05:27:43;;;;;;;49.83;20.73;;;9.70;99.90;;;;;;4976309;28;20212;-72
2021/12/15 05:30:12;;;;;;;52.83;22.55;;;9.70;99.90;;;;;;4991657;28;20204;-72
2021/12/15 05:32:40;;;;;;;56.20;22.17;;;9.70;99.90;;;;;;4996605;28;20212;-72
2021/12/15 05:35:10;;;;;;;50.17;21.58;;;9.70;99.90;;;;;;4980300;28;20216;-73
2021/12/15 05:37:38;;;;;;;54.15;20.75;;;9.70;99.90;;;;;;4992331;28;20699;-73
2021/12/15 05:40:06;;;;;;;49.78;20.08;;;9.70;99.90;;;;;;4980564;28;20633;-71
2021/12/15 05:42:33;;;;;;;60.75;23.13;;;9.70;99.90;;;;;;4994533;28;20208;-72
2021/12/15 05:44:59;;;;;;;64.57;21.70;;;9.70;99.90;;;;;;4982186;28;20239;-72
2021/12/15 05:47:27;;;;;;;53.45;22.42;;;9.70;99.90;;;;;;4978062;28;20795;-71
2021/12/15 05:49:55;;;;;;;57.25;21.95;;;9.70;99.90;;;;;;4989846;28;20208;-71
2021/12/15 05:52:27;;;;;;;55.33;22.55;;;9.70;99.90;;;;;;4986562;28;20280;-71
2021/12/15 05:54:54;;;;;;;64.97;25.15;;;9.70;99.90;;;;;;4985175;28;20219;-72
2021/12/15 05:57:21;;;;;;;69.10;24.17;;;9.70;99.90;;;;;;4988314;28;20208;-72
2021/12/15 05:59:48;;;;;;;53.92;22.88;;;9.70;99.90;;;;;;4982372;28;20259;-72
2021/12/15 06:02:15;;;;;;;66.30;25.52;;;9.70;99.90;;;;;;4983354;28;20524;-72
2021/12/15 06:04:41;;;;;;;63.72;24.58;;;9.70;99.90;;;;;;4994038;28;20235;-72
2021/12/15 06:07:08;;;;;;;72.30;24.67;;;9.70;99.90;;;;;;4988097;28;20201;-72
2021/12/15 06:09:36;;;;;;;65.25;25.67;;;9.70;99.90;;;;;;4983671;28;20598;-72
2021/12/15 06:12:05;;;;;;;68.03;24.95;;;9.70;99.90;;;;;;4987712;28;20200;-72
2021/12/15 06:14:33;;;;;;;76.45;26.85;;;9.70;99.90;;;;;;4975276;28;20290;-72
2021/12/15 06:17:04;;;;;;;65.32;24.40;;;9.70;99.90;;;;;;4989266;28;20208;-71
2021/12/15 06:19:31;;;;;;;63.80;25.10;;;9.70;99.90;;;;;;4993519;28;20200;-72
2021/12/15 06:21:58;;;;;;;67.60;25.63;;;9.80;99.90;;;;;;4977741;28;20634;-72
2021/12/15 06:24:25;;;;;;;68.20;24.75;;;9.70;99.90;;;;;;4974705;28;20232;-71
2021/12/15 06:26:53;;;;;;;70.13;24.30;;;9.80;99.90;;;;;;4976399;28;20212;-71
2021/12/15 06:29:20;;;;;;;87.38;28.60;;;9.80;99.90;;;;;;4978902;28;20585;-71
2021/12/15 06:31:47;;;;;;;75.63;27.42;;;9.80;99.90;;;;;;4987708;28;20547;-72
2021/12/15 06:34:15;;;;;;;69.50;25.48;;;9.80;99.90;;;;;;4984855;28;20213;-71
2021/12/15 06:36:42;;;;;;;88.82;28.80;;;9.80;99.90;;;;;;4974433;28;20303;-71
2021/12/15 06:39:09;;;;;;;89.07;39.53;;;9.80;99.90;;;;;;4978439;28;20208;-73
2021/12/15 06:41:36;;;;;;;83.40;29.08;;;9.80;99.90;;;;;;4985597;28;20204;-71
2021/12/15 06:44:05;;;;;;;90.65;33.60;;;9.80;99.90;;;;;;4974891;28;20236;-72
2021/12/15 07:00:29;;;;;;;76.03;27.23;;;9.90;99.90;;;;;;4969570;28;20252;-71
2021/12/15 07:02:58;;;;;;;79.05;30.48;;;9.90;99.90;;;;;;4984506;28;20219;-72
2021/12/15 07:05:26;;;;;;;68.18;25.17;;;9.90;99.90;;;;;;4990193;28;20263;-72
2021/12/15 07:07:54;;;;;;;85.78;32.83;;;9.90;99.90;;;;;;4979201;28;20211;-72
2021/12/15 07:10:24;;;;;;;73.05;26.52;;;9.90;99.90;;;;;;4993295;28;20210;-72
2021/12/15 07:12:51;;;;;;;73.15;26.38;;;9.90;99.90;;;;;;4979817;28;20205;-73
2021/12/15 07:15:19;;;;;;;78.45;29.20;;;9.90;99.90;;;;;;4990041;28;20304;-72
2021/12/15 07:17:50;;;;;;;77.15;26.45;;;9.90;99.90;;;;;;4990048;28;20588;-72
2021/12/15 07:20:33;;;;;;;56.38;26.20;;;9.90;99.90;;;;;;4985222;28;20235;-72
2021/12/15 07:23:02;;;;;;;60.22;26.30;;;9.90;99.90;;;;;;4979547;28;20219;-71
2021/12/15 07:25:30;;;;;;;61.10;24.13;;;9.90;99.90;;;;;;4983570;28;20235;-71
2021/12/15 07:27:58;;;;;;;50.05;22.80;;;9.90;99.90;;;;;;4985542;28;20546;-72
2021/12/15 07:30:28;;;;;;;60.70;23.25;;;10.00;99.90;;;;;;4992496;28;20255;-73
2021/12/15 07:32:56;;;;;;;53.55;22.55;;;9.90;99.90;;;;;;4998173;28;20206;-71
2021/12/15 07:35:24;;;;;;;65.55;25.42;;;10.00;99.90;;;;;;5004713;28;20223;-74
2021/12/15 07:37:50;;;;;;;56.95;22.85;;;10.00;99.90;;;;;;4998272;28;20207;-73
2021/12/15 07:40:21;;;;;;;51.58;21.30;;;10.00;99.90;;;;;;4994415;28;20197;-72
2021/12/15 07:43:04;;;;;;;55.33;22.58;;;10.00;99.90;;;;;;4986580;28;20200;-72
2021/12/15 07:45:34;;;;;;;59.08;22.38;;;10.00;99.90;;;;;;4984215;28;20225;-73
2021/12/15 07:48:04;;;;;;;46.25;21.55;;;10.00;99.90;;;;;;4988277;28;20212;-71
2021/12/15 07:50:32;;;;;;;50.80;22.23;;;10.00;99.90;;;;;;4991756;28;20224;-72
2021/12/15 07:52:59;;;;;;;51.65;20.45;;;10.00;99.90;;;;;;4990373;28;20212;-71
2021/12/15 07:55:26;;;;;;;50.95;21.77;;;10.00;99.90;;;;;;4988162;28;20234;-71
2021/12/15 07:57:53;;;;;;;55.03;22.88;;;10.10;99.90;;;;;;4974827;28;20268;-71
2021/12/15 08:00:21;;;;;;;49.00;22.27;;;10.10;99.90;;;;;;4983074;28;20205;-70
2021/12/15 08:02:48;;;;;;;42.78;19.38;;;10.10;99.90;;;;;;4984665;28;20693;-70
2021/12/15 08:05:16;;;;;;;47.15;20.95;;;10.10;99.90;;;;;;4983624;28;20235;-71
2021/12/15 08:07:43;;;;;;;46.47;20.65;;;10.10;99.90;;;;;;4984409;28;20215;-70
2021/12/15 08:10:11;;;;;;;43.03;20.42;;;10.10;99.90;;;;;;4994031;28;20709;-71
2021/12/15 08:12:39;;;;;;;56.25;23.40;;;10.10;99.90;;;;;;4977837;28;20235;-70
2021/12/15 08:15:08;;;;;;;40.60;20.35;;;10.10;99.90;;;;;;4994694;28;20231;-70
2021/12/15 08:17:35;;;;;;;42.28;21.48;;;10.20;99.90;;;;;;4987080;28;20261;-71
2021/12/15 08:20:02;;;;;;;44.35;20.65;;;10.10;99.90;;;;;;4987411;28;20204;-70
2021/12/15 08:22:30;;;;;;;37.47;18.42;;;10.10;99.90;;;;;;4990065;28;20216;-71
2021/12/15 08:24:56;;;;;;;47.72;22.25;;;10.20;99.90;;;;;;4981678;28;20228;-70
2021/12/15 08:27:23;;;;;;;43.40;22.50;;;10.20;99.90;;;;;;4980129;28;20209;-71
2021/12/15 08:29:50;;;;;;;35.15;18.98;;;10.20;99.90;;;;;;4978416;28;20210;-72
2021/12/15 08:32:17;;;;;;;39.03;19.17;;;10.20;99.90;;;;;;4974939;28;20200;-72
2021/12/15 08:34:44;;;;;;;43.55;20.30;;;10.20;99.90;;;;;;4999684;28;20271;-72
2021/12/15 08:37:13;;;;;;;41.60;19.50;;;10.20;99.90;;;;;;4998856;28;20211;-72
2021/12/15 08:39:42;;;;;;;42.78;21.02;;;10.20;99.90;;;;;;4976463;28;20275;-71
2021/12/15 08:42:10;;;;;;;38.78;19.38;;;10.20;99.90;;;;;;4983056;28;20941;-71
2021/12/15 08:44:37;;;;;;;44.35;20.13;;;10.30;99.90;;;;;;4993807;28;20239;-72
2021/12/15 08:47:05;;;;;;;40.03;18.83;;;10.30;99.90;;;;;;4998759;28;20226;-72
2021/12/15 08:49:32;;;;;;;40.17;19.92;;;10.30;99.90;;;;;;5013157;28;20215;-72
2021/12/15 08:52:00;;;;;;;32.60;17.50;;;10.40;99.90;;;;;;4983638;28;20203;-72
2021/12/15 08:54:26;;;;;;;35.38;18.08;;;10.40;99.90;;;;;;4993332;28;20227;-71
2021/12/15 08:56:55;;;;;;;35.28;18.55;;;10.40;99.90;;;;;;4993726;28;20578;-72
2021/12/15 08:59:22;;;;;;;34.55;18.55;;;10.40;99.90;;;;;;4988713;28;20212;-73
2021/12/15 09:01:52;;;;;;;35.90;19.27;;;10.40;99.90;;;;;;4993630;28;20262;-72
2021/12/15 09:04:19;;;;;;;30.80;17.58;;;10.40;99.90;;;;;;4993571;28;20232;-72
2021/12/15 09:06:47;;;;;;;33.75;18.15;;;10.40;99.90;;;;;;4992406;28;20212;-72
2021/12/15 09:09:16;;;;;;;35.15;18.95;;;10.40;99.90;;;;;;4992757;28;20306;-72
2021/12/15 09:11:44;;;;;;;32.65;19.63;;;10.40;99.90;;;;;;4993464;28;20218;-72
2021/12/15 09:14:12;;;;;;;37.47;19.50;;;10.40;99.90;;;;;;4993683;28;20235;-73
2021/12/15 09:16:40;;;;;;;35.53;19.10;;;10.40;99.90;;;;;;4993705;28;20215;-73
2021/12/15 09:19:07;;;;;;;31.38;18.50;;;10.40;99.90;;;;;;4990401;28;20251;-72
2021/12/15 09:21:36;;;;;;;41.13;20.30;;;10.40;99.90;;;;;;4973527;28;20217;-72
2021/12/15 09:24:04;;;;;;;37.38;18.80;;;10.40;99.90;;;;;;4974055;28;20243;-72
2021/12/15 09:26:32;;;;;;;38.05;20.15;;;10.40;99.90;;;;;;4974136;28;20232;-72
2021/12/15 09:28:59;;;;;;;42.67;19.73;;;10.40;99.90;;;;;;4973804;28;20669;-71
2021/12/15 09:31:28;;;;;;;37.58;20.83;;;10.40;99.90;;;;;;4983873;28;20470;-72
2021/12/15 09:33:56;;;;;;;36.42;20.73;;;10.40;99.90;;;;;;4992805;28;20254;-71
2021/12/15 09:36:24;;;;;;;36.45;20.35;;;10.40;99.90;;;;;;4994013;28;20674;-71
2021/12/15 09:38:54;;;;;;;37.97;20.58;;;10.40;99.90;;;;;;4996071;28;20214;-72
2021/12/15 09:41:21;;;;;;;41.20;21.60;;;10.40;99.90;;;;;;4995885;28;20238;-66
2021/12/15 09:43:51;;;;;;;39.13;20.55;;;10.40;99.90;;;;;;4993441;28;20227;-67
2021/12/15 09:46:29;;;;;;;30.05;19.60;;;10.40;99.90;;;;;;4993545;28;20227;-66
2021/12/15 09:57:18;;;;;;;32.60;19.77;;;10.50;99.90;;;;;;4993905;28;20207;-67
2021/12/15 10:02:44;;;;;;;31.48;20.77;;;10.50;99.90;;;;;;4992650;28;20222;-66
2021/12/15 10:05:26;;;;;;;35.72;18.60;;;10.50;99.90;;;;;;4993078;28;20266;-66
2021/12/15 10:11:11;;;;;;;40.50;20.65;;;10.50;99.90;;;;;;4993192;28;20207;-66
2021/12/15 10:19:18;;;;;;;33.00;18.65;;;10.50;99.90;;;;;;4973716;28;20258;-66
2021/12/15 10:22:09;;;;;;;36.58;19.63;;;10.50;99.90;;;;;;4992287;28;20204;-67
2021/12/15 10:24:45;;;;;;;38.75;21.60;;;10.50;99.90;;;;;;4993179;28;20231;-66
2021/12/15 10:27:13;;;;;;;32.20;19.20;;;10.50;99.90;;;;;;4993560;28;20206;-66
2021/12/15 10:29:58;;;;;;;32.85;18.63;;;10.60;99.90;;;;;;4989737;28;20275;-66
2021/12/15 10:32:30;;;;;;;37.58;22.27;;;10.50;99.90;;;;;;4973882;28;20212;-66
2021/12/15 10:35:01;;;;;;;34.17;18.80;;;10.50;99.90;;;;;;4973864;28;20284;-66
2021/12/15 10:37:29;;;;;;;36.13;18.80;;;10.50;99.90;;;;;;4974343;28;20558;-66
2021/12/15 10:40:13;;;;;;;34.10;18.42;;;10.50;99.90;;;;;;4974891;28;20416;-66
2021/12/15 10:42:40;;;;;;;30.00;18.67;;;10.50;99.90;;;;;;4994644;28;20203;-66
2021/12/15 10:45:11;;;;;;;34.13;19.35;;;10.50;99.90;;;;;;4998150;28;20219;-67
2021/12/15 10:47:42;;;;;;;36.17;19.20;;;10.50;99.90;;;;;;4995042;28;20241;-67
2021/12/15 10:50:15;;;;;;;34.85;20.30;;;10.50;99.90;;;;;;4995330;28;20211;-66
2021/12/15 10:52:55;;;;;;;33.72;19.27;;;10.60;99.90;;;;;;4993122;28;20297;-66
2021/12/15 10:55:29;;;;;;;35.08;19.00;;;10.60;99.90;;;;;;4992482;28;20266;-65
2021/12/15 10:57:56;;;;;;;34.47;18.70;;;10.50;99.90;;;;;;4991072;28;20208;-65
2021/12/15 11:00:23;;;;;;;32.72;19.63;;;10.60;99.90;;;;;;4991881;28;20577;-66
2021/12/15 11:02:50;;;;;;;35.10;19.75;;;10.60;99.90;;;;;;4992450;28;20216;-66
2021/12/15 11:05:19;;;;;;;37.75;19.90;;;10.60;99.90;;;;;;4992244;28;20258;-66
2021/12/15 11:07:52;;;;;;;32.17;19.17;;;10.60;99.90;;;;;;4991677;28;20211;-66
2021/12/15 11:10:25;;;;;;;38.67;20.63;;;10.60;99.90;;;;;;4991958;28;20218;-67
2021/12/15 11:12:54;;;;;;;37.13;20.60;;;10.60;99.90;;;;;;4991784;28;20213;-65
2021/12/15 11:15:26;;;;;;;33.20;20.65;;;10.60;99.90;;;;;;4990900;28;20215;-67
2021/12/15 11:17:55;;;;;;;35.15;20.25;;;10.70;99.90;;;;;;4989852;28;20208;-72
2021/12/15 11:20:24;;;;;;;36.00;19.90;;;10.70;99.90;;;;;;4978628;28;20335;-71
2021/12/15 11:23:09;;;;;;;34.50;19.70;;;10.70;99.90;;;;;;4975233;28;20326;-72
2021/12/15 11:25:44;;;;;;;34.35;20.23;;;10.70;99.90;;;;;;4987908;28;20235;-71
2021/12/15 11:28:16;;;;;;;29.08;17.00;;;9.40;99.90;;;;;;4976511;28;20629;-72
2021/12/15 11:30:47;;;;;;;38.10;21.05;;;10.90;99.90;;;;;;4976231;28;20222;-71
2021/12/15 11:33:17;;;;;;;31.27;18.73;;;10.90;99.90;;;;;;4985603;28;20200;-71
2021/12/15 11:35:47;;;;;;;38.28;20.42;;;10.90;99.90;;;;;;4986485;28;20545;-72
2021/12/15 11:38:18;;;;;;;35.45;19.27;;;10.80;99.90;;;;;;4976194;28;20235;-72
2021/12/15 11:40:49;;;;;;;38.30;20.00;;;10.60;99.90;;;;;;4986640;28;20211;-72
2021/12/15 11:43:36;;;;;;;36.35;19.98;;;10.80;99.90;;;;;;4986110;28;20314;-72
2021/12/15 11:46:13;;;;;;;35.97;20.25;;;10.80;99.90;;;;;;4983760;28;20574;-70
2021/12/15 11:48:40;;;;;;;39.13;22.42;;;10.70;99.90;;;;;;4999430;28;20211;-71
2021/12/15 11:51:09;;;;;;;44.03;21.67;;;10.70;99.90;;;;;;5002493;28;20227;-72
2021/12/15 11:53:41;;;;;;;40.45;20.75;;;10.70;99.90;;;;;;4990407;28;20235;-72
2021/12/15 11:56:32;;;;;;;36.92;20.63;;;10.70;99.90;;;;;;4979384;28;20208;-72
2021/12/15 11:59:13;;;;;;;40.63;22.30;;;10.70;99.90;;;;;;4973903;28;20574;-72
2021/12/15 12:01:51;;;;;;;37.60;21.80;;;10.70;99.90;;;;;;4993497;28;20200;-72
2021/12/15 12:04:23;;;;;;;42.30;22.55;;;10.70;99.90;;;;;;4986448;28;20212;-71
2021/12/15 12:06:52;;;;;;;38.35;22.02;;;10.70;99.90;;;;;;4993544;28;20361;-72
2021/12/15 12:09:21;;;;;;;40.17;20.38;;;10.70;99.90;;;;;;4986588;28;20211;-72
2021/12/15 12:11:54;;;;;;;42.35;21.75;;;10.70;99.90;;;;;;4982468;28;20587;-72
2021/12/15 12:14:38;;;;;;;42.10;21.13;;;10.70;99.90;;;;;;4986427;28;20566;-71
2021/12/15 12:17:11;;;;;;;37.92;22.48;;;10.70;99.90;;;;;;4993009;28;20203;-72
2021/12/15 12:19:39;;;;;;;37.28;20.60;;;10.70;99.90;;;;;;4981191;28;20299;-72
2021/12/15 12:22:06;;;;;;;35.70;20.67;;;10.70;99.90;;;;;;4990508;28;20696;-71
2021/12/15 12:24:34;;;;;;;36.08;21.40;;;10.70;99.90;;;;;;4989831;28;20263;-72
2021/12/15 12:27:02;;;;;;;43.25;21.83;;;10.70;99.90;;;;;;4979026;28;20302;-72
2021/12/15 12:29:30;;;;;;;35.47;20.10;;;10.80;99.90;;;;;;4985404;28;20207;-72
2021/12/15 12:31:57;;;;;;;36.50;20.38;;;10.80;99.90;;;;;;4980760;28;20271;-71
2021/12/15 12:34:23;;;;;;;35.08;19.55;;;10.80;99.90;;;;;;4975821;28;20232;-73
2021/12/15 12:36:50;;;;;;;36.45;21.10;;;10.80;99.90;;;;;;4988488;28;20204;-71
2021/12/15 12:39:21;;;;;;;40.92;20.00;;;10.80;99.90;;;;;;4985264;28;20292;-71
2021/12/15 12:41:50;;;;;;;32.28;20.27;;;10.80;99.90;;;;;;4973912;28;20211;-71
2021/12/15 12:44:22;;;;;;;36.70;19.80;;;10.80;99.90;;;;;;4982416;28;20247;-72
2021/12/15 12:46:57;;;;;;;32.65;19.05;;;10.80;99.90;;;;;;4980759;28;20274;-72
2021/12/15 13:00:50;;;;;;;30.17;18.90;;;10.80;99.90;;;;;;4986418;28;20242;-72
2021/12/15 13:03:23;;;;;;;31.65;18.75;;;10.90;99.90;;;;;;4992683;28;20208;-71
2021/12/15 13:05:52;;;;;;;37.78;19.88;;;10.80;99.90;;;;;;4993804;28;20235;-72
2021/12/15 13:08:36;;;;;;;37.70;19.05;;;10.80;99.90;;;;;;4982058;28;20309;-71
2021/12/15 13:11:07;;;;;;;33.00;18.55;;;10.80;99.90;;;;;;4978888;28;20204;-72
2021/12/15 13:13:36;;;;;;;32.85;18.40;;;10.80;99.90;;;;;;4993469;28;20506;-72
2021/12/15 13:16:07;;;;;;;31.00;19.48;;;10.80;99.90;;;;;;4992261;28;20297;-71
2021/12/15 13:18:53;;;;;;;30.00;16.67;;;10.80;99.90;;;;;;4993107;28;20656;-73
2021/12/15 13:21:23;;;;;;;28.75;17.33;;;10.80;99.90;;;;;;4982133;28;21275;-72
2021/12/15 13:23:53;;;;;;;35.50;18.88;;;10.80;99.90;;;;;;5004551;28;20711;-72
2021/12/15 13:29:29;;;;;;;28.38;18.35;;;10.80;99.90;;;;;;4994386;28;20285;-71
2021/12/15 13:32:02;;;;;;;26.45;16.67;;;10.80;99.90;;;;;;4995061;28;20212;-72
2021/12/15 13:34:45;;;;;;;29.13;17.95;;;10.80;99.90;;;;;;4995219;28;20235;-71
2021/12/15 13:37:32;;;;;;;30.45;17.13;;;10.80;99.90;;;;;;4988828;28;20199;-74
2021/12/15 13:39:59;;;;;;;27.20;17.92;;;10.70;99.90;;;;;;4990166;28;20212;-73
2021/12/15 13:42:51;;;;;;;29.42;19.65;;;10.70;99.90;;;;;;5001141;28;20215;-73
2021/12/15 13:45:30;;;;;;;30.95;17.00;;;10.70;99.90;;;;;;4995956;28;20224;-73
2021/12/15 13:47:58;;;;;;;30.02;18.02;;;10.70;99.90;;;;;;4991229;28;20281;-72
2021/12/15 13:50:29;;;;;;;38.90;19.20;;;10.70;99.90;;;;;;4991732;28;20230;-72
2021/12/15 13:52:58;;;;;;;29.80;18.38;;;10.70;99.90;;;;;;4992590;28;20258;-72
2021/12/15 13:55:27;;;;;;;29.00;17.10;;;10.70;99.90;;;;;;4987070;28;20232;-72
2021/12/15 13:58:13;;;;;;;31.92;18.38;;;10.70;99.90;;;;;;4992741;28;20214;-72
2021/12/15 14:00:46;;;;;;;35.35;18.75;;;10.60;99.90;;;;;;4999345;28;20283;-72
2021/12/15 14:03:23;;;;;;;34.88;18.10;;;10.60;99.90;;;;;;5011674;28;20207;-72
2021/12/15 14:05:59;;;;;;;32.33;19.02;;;10.60;99.90;;;;;;4994437;28;20688;-71
2021/12/15 14:08:32;;;;;;;33.92;20.05;;;10.60;99.90;;;;;;4992932;28;20206;-71
2021/12/15 14:11:06;;;;;;;35.03;17.90;;;10.60;99.90;;;;;;5005574;28;20210;-71
2021/12/15 14:13:46;;;;;;;30.50;18.65;;;10.60;99.90;;;;;;5002738;28;20210;-71
2021/12/15 14:16:13;;;;;;;26.52;17.60;;;10.60;99.90;;;;;;5008802;28;20199;-71
2021/12/15 14:18:41;;;;;;;32.17;18.45;;;10.50;99.90;;;;;;5003198;28;20331;-71
2021/12/15 14:21:11;;;;;;;28.05;16.85;;;10.50;99.90;;;;;;4998386;28;20322;-71
2021/12/15 14:23:40;;;;;;;29.85;17.60;;;10.50;99.90;;;;;;4987663;28;20223;-70
2021/12/15 14:26:11;;;;;;;32.22;17.38;;;10.50;99.90;;;;;;4992014;28;20471;-69
2021/12/15 14:28:42;;;;;;;29.65;16.63;;;10.60;99.90;;;;;;4995695;28;20208;-71
2021/12/15 14:31:11;;;;;;;34.72;18.15;;;10.40;99.90;;;;;;4986983;28;20208;-71
2021/12/15 14:33:40;;;;;;;31.52;18.30;;;10.50;99.90;;;;;;4983759;28;20302;-71
2021/12/15 14:36:11;;;;;;;30.55;17.38;;;10.40;99.90;;;;;;4991035;28;20220;-70
2021/12/15 14:38:46;;;;;;;30.95;18.60;;;10.40;99.90;;;;;;4988348;28;20223;-71
2021/12/15 14:41:17;;;;;;;34.50;19.83;;;10.40;99.90;;;;;;4986904;28;20651;-71
2021/12/15 14:43:49;;;;;;;28.15;17.88;;;10.40;99.90;;;;;;4985620;28;20665;-71
2021/12/15 14:46:19;;;;;;;34.83;20.02;;;10.40;99.90;;;;;;4988524;28;20616;-71
2021/12/15 14:48:46;;;;;;;33.30;17.88;;;10.40;99.90;;;;;;4991360;28;20219;-72
2021/12/15 14:51:23;;;;;;;34.58;18.92;;;10.40;99.90;;;;;;4991227;28;20208;-72
2021/12/15 14:53:49;;;;;;;34.40;19.02;;;10.40;99.90;;;;;;4990543;28;20239;-71
2021/12/15 14:56:16;;;;;;;34.35;18.70;;;10.40;99.90;;;;;;4991165;28;20204;-72
2021/12/15 14:58:43;;;;;;;34.25;19.77;;;10.40;99.90;;;;;;4991322;28;20203;-71
2021/12/15 15:01:16;;;;;;;30.52;19.27;;;10.40;99.90;;;;;;4982584;28;20204;-73
2021/12/15 15:03:58;;;;;;;32.67;18.13;;;10.40;99.90;;;;;;4981293;28;20722;-71
2021/12/15 15:06:27;;;;;;;31.23;18.35;;;10.40;99.90;;;;;;5006333;28;20226;-71
2021/12/15 15:08:53;;;;;;;29.65;18.40;;;10.30;99.90;;;;;;4978830;28;20584;-71
2021/12/15 15:11:24;;;;;;;35.70;19.20;;;10.30;99.90;;;;;;4990151;28;20227;-72
2021/12/15 15:13:52;;;;;;;31.55;18.23;;;10.30;99.90;;;;;;4998933;28;20281;-71
2021/12/15 15:16:23;;;;;;;32.67;19.35;;;10.20;99.90;;;;;;4992848;28;20235;-72
2021/12/15 15:18:49;;;;;;;31.20;18.52;;;10.20;99.90;;;;;;4984511;28;20196;-71
2021/12/15 15:21:16;;;;;;;33.13;19.55;;;10.30;99.90;;;;;;4981227;28;20219;-71
2021/12/15 15:23:47;;;;;;;40.67;24.83;;;10.20;99.90;;;;;;4988491;28;20290;-71
2021/12/15 15:26:14;;;;;;;33.30;18.95;;;10.20;99.90;;;;;;4989403;28;20208;-71
2021/12/15 15:28:43;;;;;;;36.55;19.77;;;10.20;99.90;;;;;;4982431;28;20350;-71
2021/12/15 15:31:14;;;;;;;37.22;22.33;;;10.20;99.90;;;;;;4983325;28;20271;-71
2021/12/15 15:33:41;;;;;;;31.70;19.08;;;10.20;99.90;;;;;;4987919;28;20568;-71
2021/12/15 15:36:12;;;;;;;34.90;20.45;;;10.20;99.90;;;;;;4984361;28;20568;-71
2021/12/15 15:38:43;;;;;;;32.25;18.25;;;10.20;99.90;;;;;;4986411;28;20253;-71
2021/12/15 15:41:14;;;;;;;34.78;19.27;;;10.20;99.90;;;;;;4975892;28;20551;-71
2021/12/15 15:43:43;;;;;;;33.65;20.35;;;10.20;99.90;;;;;;4978912;28;20590;-70
2021/12/15 15:46:13;;;;;;;36.78;19.60;;;10.20;99.90;;;;;;4981317;28;20258;-71
2021/12/15 15:48:42;;;;;;;25.85;16.08;;;10.20;99.90;;;;;;4986921;28;20302;-70
2021/12/15 15:51:12;;;;;;;31.45;19.60;;;10.20;99.90;;;;;;4985388;28;20208;-71
2021/12/15 15:53:40;;;;;;;30.88;18.85;;;10.20;99.90;;;;;;4970840;28;20208;-70
2021/12/15 15:56:13;;;;;;;35.95;18.80;;;10.20;99.90;;;;;;4971981;28;20565;-72
2021/12/15 15:58:42;;;;;;;27.90;17.73;;;10.20;99.90;;;;;;4984464;28;20286;-72
2021/12/15 16:01:11;;;;;;;34.63;18.55;;;10.10;99.90;;;;;;4974359;28;20303;-72
2021/12/15 16:03:38;;;;;;;33.78;18.30;;;10.20;99.90;;;;;;4972191;28;20208;-70
2021/12/15 16:06:08;;;;;;;28.00;17.92;;;10.10;99.90;;;;;;4974120;28;20319;-72
2021/12/15 16:08:37;;;;;;;30.73;19.05;;;10.20;99.90;;;;;;4972328;28;20260;-72
2021/12/15 16:11:05;;;;;;;30.50;18.50;;;10.20;99.90;;;;;;4972927;28;20227;-72
2021/12/15 16:13:36;;;;;;;29.02;18.02;;;10.20;99.90;;;;;;4970846;28;20279;-72
2021/12/15 16:16:10;;;;;;;31.60;18.63;;;10.20;99.90;;;;;;4984328;28;20218;-71
2021/12/15 16:18:42;;;;;;;35.70;20.63;;;10.10;99.90;;;;;;4992930;28;20271;-72
2021/12/15 16:22:50;;;;;;;25.65;16.98;;;10.10;99.90;;;;;;4979551;28;20308;-72
2021/12/15 16:24:04;;;;;;;33.55;18.08;;;10.10;99.90;;;;;;4990065;28;20278;-71
2021/12/15 16:26:32;;;;;;;36.47;20.02;;;10.10;99.90;;;;;;4981788;28;20212;-71
2021/12/15 16:29:07;;;;;;;33.05;19.13;;;10.10;99.90;;;;;;4989709;28;20571;-71
2021/12/15 16:31:40;;;;;;;32.72;17.98;;;10.00;99.90;;;;;;4986763;28;20222;-72
2021/12/15 16:34:06;;;;;;;33.97;19.98;;;10.00;99.90;;;;;;5002083;28;20224;-71
2021/12/15 16:36:35;;;;;;;31.35;18.17;;;9.90;99.90;;;;;;4990219;28;20212;-72
2021/12/15 16:39:05;;;;;;;33.75;19.27;;;9.90;99.90;;;;;;4984880;28;20201;-71
2021/12/15 16:41:35;;;;;;;37.47;18.30;;;9.90;99.90;;;;;;4993532;28;20203;-72
2021/12/15 16:44:13;;;;;;;34.70;19.88;;;9.90;99.90;;;;;;5001742;28;20331;-72
2021/12/15 16:46:50;;;;;;;38.95;20.92;;;9.90;99.90;;;;;;4989330;28;20645;-72
2021/12/15 16:49:24;;;;;;;37.90;20.67;;;9.90;99.90;;;;;;4990690;28;20206;-71
2021/12/15 16:52:02;;;;;;;31.90;19.67;;;9.90;99.90;;;;;;5000851;28;20219;-71
2021/12/15 16:54:32;;;;;;;44.42;22.92;;;9.90;99.90;;;;;;4986868;28;20224;-72
2021/12/15 16:57:08;;;;;;;33.25;19.85;;;9.90;99.90;;;;;;4975806;28;20236;-71
2021/12/15 16:59:39;;;;;;;34.92;20.00;;;9.90;99.90;;;;;;4980351;28;20594;-72
2021/12/15 17:02:18;;;;;;;32.58;18.27;;;9.90;99.90;;;;;;4973530;28;20195;-71
2021/12/15 17:04:48;;;;;;;43.03;27.27;;;9.90;99.90;;;;;;4983216;28;20595;-71
2021/12/15 17:07:17;;;;;;;35.45;20.55;;;9.90;99.90;;;;;;4993031;28;20271;-71
2021/12/15 17:09:50;;;;;;;34.88;20.38;;;9.90;99.90;;;;;;4986605;28;20249;-71
2021/12/15 17:12:25;;;;;;;37.20;20.35;;;9.90;99.90;;;;;;4994964;28;20666;-71
2021/12/15 17:14:57;;;;;;;33.40;20.00;;;9.90;99.90;;;;;;4998964;28;20844;-71
2021/12/15 17:17:44;;;;;;;33.30;17.80;;;9.90;99.90;;;;;;4997633;28;20590;-69
2021/12/15 17:20:37;;;;;;;30.55;17.77;;;9.90;99.90;;;;;;4993845;28;20224;-70
2021/12/15 17:23:13;;;;;;;29.60;17.55;;;9.90;99.90;;;;;;4992774;28;20588;-70
2021/12/15 17:25:45;;;;;;;27.95;16.90;;;9.90;99.90;;;;;;4991500;28;20663;-71
2021/12/15 17:28:16;;;;;;;27.90;16.15;;;9.90;99.90;;;;;;4992348;28;20312;-70
2021/12/15 17:30:48;;;;;;;30.50;15.40;;;10.00;99.90;;;;;;5003802;28;20663;-70
2021/12/15 17:33:38;;;;;;;22.35;16.58;;;10.00;99.90;;;;;;5000237;28;20203;-70
2021/12/15 17:36:28;;;;;;;23.80;14.77;;;10.00;99.90;;;;;;4991171;28;20215;-71
2021/12/15 17:39:05;;;;;;;26.77;15.85;;;10.00;99.90;;;;;;4991017;28;20253;-71
2021/12/15 17:41:36;;;;;;;28.20;16.13;;;10.00;99.90;;;;;;4992531;28;20192;-70
2021/12/15 17:44:08;;;;;;;31.75;19.05;;;10.00;99.90;;;;;;4991658;28;20230;-71
2021/12/15 17:46:39;;;;;;;25.02;15.80;;;10.00;99.90;;;;;;4992518;28;20212;-71
2021/12/15 17:49:13;;;;;;;27.90;17.65;;;10.00;99.90;;;;;;4989856;28;20708;-72
2021/12/15 17:52:06;;;;;;;29.83;16.75;;;10.00;99.90;;;;;;4981991;28;20218;-71
2021/12/15 17:54:37;;;;;;;30.25;15.55;;;10.10;99.90;;;;;;4999047;28;20249;-71
2021/12/15 17:57:07;;;;;;;30.90;18.02;;;10.00;99.90;;;;;;5007270;28;20265;-71
2021/12/15 17:59:36;;;;;;;29.58;17.52;;;10.00;99.90;;;;;;4992398;28;20215;-71
2021/12/15 18:02:05;;;;;;;26.70;17.05;;;10.00;99.90;;;;;;4991507;28;20207;-71
2021/12/15 18:04:33;;;;;;;31.77;17.98;;;10.00;99.90;;;;;;4992024;28;20232;-71
2021/12/15 18:07:00;;;;;;;30.60;17.67;;;10.00;99.90;;;;;;4990916;28;20265;-71
2021/12/15 18:09:28;;;;;;;25.92;16.70;;;10.00;99.90;;;;;;4991941;28;20588;-71
2021/12/15 18:11:57;;;;;;;35.15;18.15;;;10.00;99.90;;;;;;4998629;28;20611;-71
2021/12/15 18:14:24;;;;;;;30.00;18.25;;;10.00;99.90;;;;;;5009645;28;20227;-71
2021/12/15 18:16:53;;;;;;;37.50;20.02;;;10.00;99.90;;;;;;4995914;28;20227;-72
2021/12/15 18:19:20;;;;;;;33.28;20.30;;;10.00;99.90;;;;;;4996743;28;20200;-71
2021/12/15 18:21:49;;;;;;;29.55;17.50;;;10.10;99.90;;;;;;4998005;28;20211;-71
2021/12/15 18:24:17;;;;;;;32.85;18.73;;;10.10;99.90;;;;;;4980387;28;20327;-71
2021/12/15 18:26:51;;;;;;;36.70;19.15;;;10.10;99.90;;;;;;4985868;28;20208;-71
2021/12/15 18:29:19;;;;;;;40.03;21.67;;;10.10;99.90;;;;;;4982961;28;20228;-71
2021/12/15 18:31:51;;;;;;;31.25;19.10;;;10.00;99.90;;;;;;4981890;28;20224;-71
2021/12/15 18:34:18;;;;;;;39.17;21.25;;;10.00;99.90;;;;;;4991537;28;20319;-71
2021/12/15 18:36:46;;;;;;;37.85;19.88;;;10.00;99.90;;;;;;4989498;28;20219;-71